Aviation Digital Data Service (ADDS)

Output produced by METARs form (1207 UTC 26 March 2019)
found at http://www.aviationweather.gov/metar/data/
 
TAF KIAB 261000Z 2610/2716 VRB06KT 4800 BR FEW120 QNH3031INS 
     BECMG 2611/2612 VRB06KT 2400 BR FEW050 QNH3035INS 
     BECMG 2614/2615 18006KT 9999 NSW SKC QNH3022INS 
     BECMG 2705/2706 18009KT 9999 BKN040 WS020/20045KT QNH3018INS 
     BECMG 2709/2710 18012KT 9999 SCT040 BKN060 QNH3017INS 
     BECMG 2711/2712 20015G25KT 9999 BKN050 QNH3013INS TX16/2621Z TN04/2612Z
       
KIAD 261121Z 2612/2718 36011G18KT P6SM SKC 
     FM270100 02005KT P6SM FEW250
       
KIAG 261130Z 2612/2712 02007KT P6SM SKC 
     FM261800 32007KT P6SM SKC 
     FM270000 VRB03KT P6SM SKC 
     FM270600 VRB03KT P6SM FEW250
       
KIAH 261120Z 2612/2718 04009KT P6SM SKC 
     FM270100 VRB04KT P6SM SCT250 
     FM271500 13007KT P6SM BKN250
       
KICT 261120Z 2612/2712 14004KT P6SM SCT250 
     TEMPO 2612/2614 3SM BR 
     FM261500 VRB03KT P6SM SCT250 
     FM261800 18008KT P6SM SCT120 
     FM271000 17012KT P6SM SCT250
       
KIDA 261120Z 2612/2712 36006KT P6SM BKN200 
     FM261800 21012KT P6SM BKN200 
     FM270300 VRB05KT P6SM SCT070 BKN150
       
KIFP 261136Z 2612/2712 VRB05KT P6SM BKN250 
     FM261900 19012KT P6SM BKN250 
     FM270200 17008KT P6SM SCT250
       
KILG 261120Z 2612/2712 01012G18KT P6SM SKC 
     FM261800 36010KT P6SM SKC 
     FM270000 35004KT P6SM SKC
       
KILM 261126Z 2612/2712 01010G17KT 6SM -RA BR BKN008 
     FM261300 02013G21KT P6SM BKN015 
     FM261600 03013G21KT P6SM BKN025 
     FM261700 02014G21KT P6SM SKC 
     FM270000 03008KT P6SM SKC
       
KILN 261131Z 2612/2712 03008KT P6SM SKC 
     FM261400 04012G18KT P6SM SKC 
     FM262200 04007KT P6SM SKC 
     FM270300 05004KT P6SM FEW200
       
KIND 261130Z 2612/2718 03007KT P6SM SKC 
     FM261500 06006KT P6SM SKC
       
TAF KINS 260603Z 2606/2712 VRB06KT 9999 FEW250 QNH2996INS 
     BECMG 2618/2619 12010G15KT 9999 FEW250 QNH2988INS 
     BECMG 2621/2622 13012G25KT 9999 FEW250 510009 QNH2985INS WND 130V200 
     TEMPO 2623/2704 20015G30KT 
     BECMG 2703/2704 22009KT 9999 SCT250 QNH2988INS TX24/2622Z TN07/2614Z
       
KINT 261120Z 2612/2712 04012G18KT 6SM BR SCT005 BKN015 
     FM261500 04012G18KT P6SM BKN035 
     FM261800 04011G18KT P6SM SCT050 
     FM270000 05005KT P6SM SKC
       
KINW 261138Z 2612/2712 VRB05KT P6SM SKC 
     FM261800 18010KT P6SM SCT250 
     FM262100 20010G20KT P6SM SCT250 
     FM270200 21010KT P6SM BKN200
       
KIPL 261137Z 2612/2712 28005KT P6SM FEW250 
     FM261400 16005KT P6SM BKN250 
     FM270100 29006KT P6SM BKN250
       
KIPT 261121Z 2612/2712 35006KT P6SM SKC
       
KISM 261123Z 2612/2712 29005KT P6SM FEW009 FEW015 SCT070 
     FM261400 29009KT P6SM SCT040 
     FM262200 02010KT P6SM FEW040 BKN060 
     FM270100 01007KT P6SM FEW060
       
KISN 261120Z 2612/2712 17005KT P6SM BKN250 
     FM261800 20009KT P6SM BKN200 
     FM270200 VRB04KT P6SM BKN150 
     FM271000 26005KT P6SM SCT120
       
KISO 261130Z 2612/2712 02013G20KT P6SM BKN015 
     FM261400 02014G21KT P6SM BKN025 
     FM261630 02015G22KT P6SM SKC 
     FM262300 03005KT P6SM SKC AMD LTD TO CLD VIS AND WIND
       
KISP 261135Z 2612/2712 01011G18KT P6SM FEW100 SCT250 
     FM261500 01013G21KT P6SM FEW250 
     FM261900 01012G20KT P6SM SKC 
     FM262100 36010KT P6SM SKC 
     FM270000 35007KT P6SM SKC 
     FM271100 03005KT P6SM SKC
       
KITH 261120Z 2612/2712 34005KT P6SM SKC 
     FM261700 33009G16KT P6SM SKC 
     FM270000 VRB04KT P6SM SKC
       
KIWA 261137Z 2612/2712 12005KT P6SM SCT250 
     FM262000 26005KT P6SM BKN250 
     FM270500 12005KT P6SM BKN250
       
KIXD 261151Z 2612/2712 VRB04KT P6SM SCT035 BKN080 
     TEMPO 2612/2613 5SM BR 
     FM261400 14005KT P6SM BKN035 
     FM262300 14007KT P6SM SKC 
     FM270600 17010KT P6SM SKC